Bridgeboro, New Jersey
Current Conditions -  °F | °C
As of 9:54 PM on Friday 24 Oct 2014 (Local Time) from KPNE Reporting Station
Clear Clear  
Wind Chill: 59°   Ceiling: Unl
Heat Index: 59°   Visibility: 10mi
Dew Point: 40°   Wind: 6mph
Humidity: 49%   Direction: 300°WNW
Pressure: 29.88"   Gusts: NA
Location:  40.0192°N, 74.9489°W
Report Text: KPNE 250154Z AUTO 30005KT 10SM CLR 15/04 A2988 RMK AO2 SLP117 T01500044 TSNO
Loading
Personal Weather Stations






























Interactive Weather Map
Tropical Storm Tracking
New forecast layout! Learn more

10-Day Weather Forecast

Advertisements
Track Severe Weather on mobile